Time;durP1;ratioP1;P1;durP2;ratioP2;P2;SDS_P1;SDS_P2;PMS_P1;PMS_P2;Temp;Humidity;BMP_temperature;BMP_pressure;BME280_temperature;BME280_humidity;BME280_pressure;Samples;Min_cycle;Max_cycle;Signal;HPM_P1;HPM_P2
2023/03/24 00:00:22;;;;;;;19.80;7.60;;;;;;;5.74;93.24;94736.91;5040479;28;20583;-76
2023/03/24 00:02:50;;;;;;;13.57;6.75;;;;;;;5.80;93.26;94741.09;5039476;28;20203;-76
2023/03/24 00:05:18;;;;;;;15.25;6.55;;;;;;;5.71;93.21;94733.72;5028819;28;20952;-76
2023/03/24 00:07:46;;;;;;;11.82;6.43;;;;;;;5.70;93.27;94734.78;5039986;28;20238;-76
2023/03/24 00:10:17;;;;;;;17.38;6.35;;;;;;;5.62;93.43;94724.69;5033386;28;21079;-76
2023/03/24 00:12:45;;;;;;;10.40;6.40;;;;;;;5.71;93.57;94736.41;5033600;28;20208;-76
2023/03/24 00:15:14;;;;;;;20.27;6.97;;;;;;;5.78;93.70;94729.81;5039133;28;20204;-76
2023/03/24 00:17:41;;;;;;;12.90;5.68;;;;;;;5.83;93.29;94729.75;5042524;28;20238;-76
2023/03/24 00:20:13;;;;;;;13.15;7.28;;;;;;;5.80;92.81;94731.13;5055011;28;20218;-77
2023/03/24 00:22:41;;;;;;;17.35;7.15;;;;;;;5.80;92.05;94741.09;5053480;28;20712;-76
2023/03/24 00:25:09;;;;;;;16.17;7.40;;;;;;;5.71;92.46;94744.47;5066873;28;20626;-75
2023/03/24 00:27:37;;;;;;;14.90;7.18;;;;;;;5.74;91.96;94753.78;5053003;28;21062;-76
2023/03/24 00:30:07;;;;;;;16.70;8.50;;;;;;;5.65;92.05;94748.31;5053209;28;20199;-75
2023/03/24 00:32:35;;;;;;;18.13;9.55;;;;;;;5.66;92.62;94741.03;5050390;28;20296;-76
2023/03/24 00:35:02;;;;;;;15.32;7.20;;;;;;;5.65;93.18;94744.81;5055639;28;20317;-74
2023/03/24 00:37:29;;;;;;;14.68;6.30;;;;;;;5.59;93.23;94740.63;5059986;28;20709;-75
2023/03/24 00:39:56;;;;;;;12.80;6.50;;;;;;;5.55;93.53;94743.09;5059846;28;20539;-76
2023/03/24 00:42:25;;;;;;;12.27;6.35;;;;;;;5.55;93.44;94740.41;5057255;28;20203;-77
2023/03/24 00:44:54;;;;;;;11.40;6.72;;;;;;;5.55;93.92;94737.72;5058838;28;20195;-76
2023/03/24 00:47:24;;;;;;;13.60;7.18;;;;;;;5.61;93.65;94733.06;5064076;28;20207;-75
2023/03/24 00:49:53;;;;;;;19.95;8.75;;;;;;;5.55;93.44;94729.66;5063977;28;20207;-76
2023/03/24 00:52:22;;;;;;;12.70;6.65;;;;;;;5.52;93.90;94724.06;5050513;28;20283;-75
2023/03/24 00:54:53;;;;;;;14.20;7.03;;;;;;;5.45;94.14;94718.28;5064144;28;20581;-76
2023/03/24 00:57:21;;;;;;;13.18;6.82;;;;;;;5.50;95.01;94726.25;5058800;28;20230;-76
2023/03/24 00:59:48;;;;;;;14.80;7.70;;;;;;;5.60;95.39;94721.50;5055898;28;20222;-76
2023/03/24 01:02:20;;;;;;;14.05;7.75;;;;;;;5.63;95.26;94725.50;5058731;28;20199;-77
2023/03/24 01:04:48;;;;;;;13.85;7.55;;;;;;;5.61;95.23;94720.41;5057328;28;20269;-75
2023/03/24 01:07:17;;;;;;;20.20;7.88;;;;;;;5.68;95.12;94723.53;5061202;28;20219;-75
2023/03/24 01:09:50;;;;;;;15.88;8.52;;;;;;;5.65;95.14;94721.44;5063483;28;20316;-76
2023/03/24 01:12:18;;;;;;;22.63;7.88;;;;;;;5.58;94.78;94715.66;5061164;28;20199;-76
2023/03/24 01:14:45;;;;;;;13.93;7.68;;;;;;;5.62;94.97;94724.69;5057767;28;20198;-75
2023/03/24 01:17:12;;;;;;;17.05;8.18;;;;;;;5.56;95.00;94728.59;5058794;28;20398;-76
2023/03/24 01:19:41;;;;;;;16.65;7.63;;;;;;;5.54;95.28;94721.91;5063915;28;20238;-76
2023/03/24 01:22:08;;;;;;;13.95;7.05;;;;;;;5.60;95.50;94724.19;5063661;28;20559;-76
2023/03/24 01:24:35;;;;;;;17.60;7.72;;;;;;;5.58;95.79;94718.34;5070478;28;20553;-77
2023/03/24 01:27:02;;;;;;;14.40;7.38;;;;;;;5.67;95.99;94710.41;5071398;28;20205;-76
2023/03/24 01:29:30;;;;;;;12.90;7.18;;;;;;;5.50;95.68;94713.63;5056223;28;20668;-76
2023/03/24 01:31:57;;;;;;;16.25;7.47;;;;;;;5.48;95.40;94707.75;5064578;28;20215;-77
2023/03/24 01:34:24;;;;;;;12.57;6.95;;;;;;;5.46;95.83;94718.00;5057481;28;20210;-76
2023/03/24 01:36:52;;;;;;;15.27;6.63;;;;;;;5.46;95.74;94718.00;5057548;28;20227;-77
2023/03/24 01:39:19;;;;;;;15.85;6.20;;;;;;;5.42;95.75;94719.66;5055286;28;20736;-76
2023/03/24 01:41:46;;;;;;;12.25;6.45;;;;;;;5.31;96.27;94708.28;5070276;28;20289;-75
2023/03/24 01:44:29;;;;;;;11.20;5.57;;;;;;;5.41;96.08;94712.69;5056235;28;20210;-75
2023/03/24 01:46:57;;;;;;;12.63;6.80;;;;;;;5.40;95.64;94716.47;5056087;28;20212;-75
2023/03/24 01:49:27;;;;;;;12.82;6.97;;;;;;;5.32;95.78;94711.78;5061684;28;20577;-76
2023/03/24 01:51:59;;;;;;;14.80;7.20;;;;;;;5.34;96.19;94717.63;5062503;28;20203;-76
2023/03/24 01:54:32;;;;;;;13.80;6.10;;;;;;;5.35;96.37;94713.84;5058586;28;20290;-76
2023/03/24 01:57:03;;;;;;;17.30;7.72;;;;;;;5.35;96.28;94719.22;5051957;28;20227;-77
2023/03/24 01:59:33;;;;;;;16.80;6.68;;;;;;;5.29;96.30;94720.41;5060223;28;20239;-76
2023/03/24 02:02:02;;;;;;;13.32;7.20;;;;;;;5.25;96.50;94719.38;5056570;28;20202;-76
2023/03/24 02:04:33;;;;;;;15.57;7.65;;;;;;;5.28;95.95;94729.56;5057993;28;20569;-76
2023/03/24 02:07:08;;;;;;;12.80;6.80;;;;;;;5.21;96.34;94723.75;5063068;28;20686;-76
2023/03/24 02:09:35;;;;;;;19.65;6.72;;;;;;;5.15;96.22;94730.28;5063513;28;20261;-77
2023/03/24 02:12:02;;;;;;;10.95;5.18;;;;;;;5.06;97.01;94727.44;5062193;28;20238;-77
2023/03/24 02:14:30;;;;;;;15.93;7.15;;;;;;;5.12;97.53;94736.22;5063699;28;20203;-76
2023/03/24 02:17:26;;;;;;;13.75;6.85;;;;;;;5.12;96.87;94731.66;5061964;28;20227;-77
2023/03/24 02:20:16;;;;;;;16.05;6.60;;;;;;;5.16;97.22;94732.69;5054832;28;20203;-76
2023/03/24 02:23:30;;;;;;;16.83;6.43;;;;;;;5.17;97.44;94733.47;5057071;28;20202;-76
2023/03/24 02:26:38;;;;;;;12.70;8.02;;;;;;;5.06;98.25;94729.34;5028765;28;20573;-76
2023/03/24 02:29:32;;;;;;;17.77;8.52;;;;;;;5.12;98.13;94725.50;5057756;28;20286;-78
2023/03/24 02:32:20;;;;;;;15.00;7.50;;;;;;;5.15;98.25;94730.28;5061591;28;20195;-76
2023/03/24 02:35:20;;;;;;;17.15;8.65;;;;;;;5.17;98.32;94728.13;5049122;28;20214;-76
2023/03/24 02:38:11;;;;;;;23.48;13.82;;;;;;;5.13;98.11;94732.47;5056763;28;20574;-75
2023/03/24 02:40:44;;;;;;;16.10;8.00;;;;;;;5.08;98.03;94729.84;5055261;28;20207;-76
2023/03/24 02:43:30;;;;;;;19.05;8.85;;;;;;;5.04;98.83;94713.53;5068746;28;20672;-75
2023/03/24 02:46:12;;;;;;;14.02;7.40;;;;;;;5.16;98.57;94715.78;5061497;28;20207;-77
2023/03/24 02:48:47;;;;;;;15.90;7.72;;;;;;;5.29;97.24;94720.41;5062207;28;20232;-75
2023/03/24 02:51:20;;;;;;;15.30;7.15;;;;;;;5.24;97.19;94701.69;5052339;28;20556;-76
2023/03/24 02:53:55;;;;;;;13.70;7.63;;;;;;;5.30;97.31;94695.16;5062133;28;20237;-76
2023/03/24 02:56:28;;;;;;;12.85;7.60;;;;;;;5.50;96.15;94699.38;5061166;28;20198;-76
2023/03/24 02:59:01;;;;;;;16.27;8.30;;;;;;;5.41;96.16;94695.78;5055637;28;20195;-77
2023/03/24 03:01:34;;;;;;;16.08;8.70;;;;;;;5.36;97.05;94696.66;5054291;28;20207;-77
2023/03/24 03:04:06;;;;;;;15.95;8.10;;;;;;;5.34;97.65;94693.47;5068020;28;20203;-77
2023/03/24 03:06:36;;;;;;;19.25;8.52;;;;;;;5.33;98.22;94689.19;5054664;28;20214;-78
2023/03/24 03:09:07;;;;;;;18.75;7.63;;;;;;;5.39;98.83;94687.22;5058083;28;20227;-75
2023/03/24 03:11:36;;;;;;;15.15;8.43;;;;;;;5.37;98.75;94684.81;5066084;28;20223;-76
2023/03/24 03:14:08;;;;;;;18.08;7.50;;;;;;;5.39;98.46;94681.84;5057159;28;20689;-76
2023/03/24 03:16:39;;;;;;;18.02;7.93;;;;;;;5.43;98.30;94694.41;5061188;28;20200;-76
2023/03/24 03:19:11;;;;;;;16.10;6.97;;;;;;;5.34;98.27;94691.56;5060232;28;20234;-78
2023/03/24 03:21:41;;;;;;;17.30;9.57;;;;;;;5.36;98.27;94696.66;5055328;28;20198;-77
2023/03/24 03:24:14;;;;;;;13.55;6.47;;;;;;;5.31;98.13;94694.06;5067850;28;20206;-76
2023/03/24 03:26:45;;;;;;;12.18;6.63;;;;;;;5.43;98.24;94699.78;5068091;28;20195;-76
2023/03/24 03:29:17;;;;;;;15.38;7.20;;;;;;;5.38;98.23;94697.16;5057803;28;20199;-76
2023/03/24 03:31:50;;;;;;;12.10;6.43;;;;;;;5.46;97.83;94699.19;5068289;28;20202;-76
2023/03/24 03:34:27;;;;;;;16.92;8.05;;;;;;;5.53;96.73;94694.22;5054527;28;20203;-76
2023/03/24 03:37:02;;;;;;;12.23;6.70;;;;;;;5.45;96.71;94688.75;5067440;28;20229;-76
2023/03/24 03:39:31;;;;;;;11.32;6.60;;;;;;;5.46;96.44;94675.03;5060750;28;20740;-76
2023/03/24 03:41:59;;;;;;;11.43;7.10;;;;;;;5.44;96.90;94674.50;5060893;28;20234;-77
2023/03/24 03:44:26;;;;;;;14.68;7.25;;;;;;;5.39;96.22;94681.84;5055189;28;20199;-77
2023/03/24 03:46:53;;;;;;;16.65;5.78;;;;;;;5.32;96.57;94682.25;5053889;28;20823;-76
2023/03/24 03:49:20;;;;;;;9.77;5.55;;;;;;;5.31;96.01;94686.81;5059163;28;20208;-76
2023/03/24 03:51:47;;;;;;;12.32;6.43;;;;;;;5.34;96.52;94696.13;5048360;28;20223;-77
2023/03/24 03:54:16;;;;;;;10.13;5.38;;;;;;;5.21;96.46;94692.31;5059716;28;20203;-76
2023/03/24 03:56:45;;;;;;;14.23;6.38;;;;;;;5.21;96.26;94696.88;5060419;28;20207;-77
2023/03/24 03:59:25;;;;;;;13.32;7.18;;;;;;;5.00;96.41;94702.56;5055505;28;20209;-75
2023/03/24 04:01:53;;;;;;;15.07;7.25;;;;;;;4.80;96.48;94692.09;5049679;28;20294;-77
2023/03/24 04:04:42;;;;;;;13.98;7.85;;;;;;;4.86;97.68;94708.94;5057179;28;20230;-77
2023/03/24 04:07:15;;;;;;;18.20;8.57;;;;;;;5.02;97.75;94709.53;5047047;28;20222;-76
2023/03/24 04:09:55;;;;;;;18.48;9.40;;;;;;;5.26;96.51;94713.72;5060617;28;20234;-75
2023/03/24 04:12:35;;;;;;;15.80;8.32;;;;;;;5.21;95.91;94704.94;5057351;28;20203;-76
2023/03/24 04:15:29;;;;;;;14.52;7.38;;;;;;;5.09;95.95;94710.75;5056073;28;20205;-75
2023/03/24 04:18:10;;;;;;;11.13;6.57;;;;;;;5.11;96.14;94713.16;5058021;28;20242;-76
2023/03/24 04:20:45;;;;;;;11.90;5.45;;;;;;;5.11;95.28;94713.16;5059512;28;20207;-76
2023/03/24 04:23:26;;;;;;;12.55;6.75;;;;;;;5.07;94.81;94712.94;5062376;28;20199;-77
2023/03/24 04:26:05;;;;;;;11.77;6.60;;;;;;;4.97;95.04;94713.88;5058546;28;20194;-76
2023/03/24 04:28:38;;;;;;;13.02;7.20;;;;;;;5.10;95.83;94711.56;5055943;28;20210;-75
2023/03/24 04:31:16;;;;;;;13.68;7.07;;;;;;;5.07;96.05;94706.75;5057029;28;20550;-76
2023/03/24 04:33:50;;;;;;;19.15;8.35;;;;;;;5.11;96.59;94705.09;5065790;28;20194;-77
2023/03/24 04:36:26;;;;;;;19.73;8.10;;;;;;;5.15;96.38;94695.38;5055388;28;20200;-75
2023/03/24 04:38:56;;;;;;;20.23;7.38;;;;;;;5.27;96.13;94704.59;5063493;28;20222;-75
2023/03/24 04:41:26;;;;;;;13.35;7.18;;;;;;;5.47;95.40;94714.19;5054829;28;20196;-76
2023/03/24 04:43:56;;;;;;;14.32;7.63;;;;;;;5.99;95.93;94720.38;5060986;28;20340;-76
2023/03/24 04:46:25;;;;;;;29.75;13.68;;;;;;;6.93;93.52;94704.50;5059997;28;20204;-76
2023/03/24 04:48:51;;;;;;;22.15;10.65;;;;;;;7.81;87.82;94711.06;5053530;28;20282;-77
2023/03/24 04:51:19;;;;;;;19.17;9.32;;;;;;;8.71;83.15;94705.47;5056392;28;20245;-77
2023/03/24 04:53:47;;;;;;;18.08;9.07;;;;;;;9.48;78.35;94721.00;5062420;28;20729;-76
2023/03/24 04:56:29;;;;;;;20.10;9.38;;;;;;;10.16;74.68;94719.34;5059333;28;20631;-76
2023/03/24 04:58:57;;;;;;;18.10;9.55;;;;;;;10.21;73.35;94706.47;5064155;28;21034;-77
2023/03/24 05:01:29;;;;;;;17.15;9.07;;;;;;;10.24;74.44;94718.56;5057629;28;20202;-76
2023/03/24 05:03:56;;;;;;;16.52;9.68;;;;;;;10.53;73.94;94723.22;5055559;28;20191;-75
2023/03/24 05:06:23;;;;;;;15.00;8.27;;;;;;;11.27;70.70;94704.50;5055722;28;20360;-76
2023/03/24 05:08:51;;;;;;;14.98;8.60;;;;;;;11.56;70.06;94711.78;5059363;28;20211;-76
2023/03/24 05:11:18;;;;;;;42.03;19.35;;;;;;;11.78;68.95;94707.97;5066703;28;20463;-74
2023/03/24 05:13:46;;;;;;;38.70;17.13;;;;;;;12.08;66.24;94706.72;5061827;28;20204;-74
2023/03/24 05:16:13;;;;;;;21.27;10.30;;;;;;;12.79;65.05;94714.56;5060164;28;20585;-76
2023/03/24 05:18:41;;;;;;;21.55;9.75;;;;;;;12.71;66.08;94715.44;5060634;28;20235;-76
2023/03/24 05:21:08;;;;;;;22.95;10.38;;;;;;;13.46;62.94;94710.44;5060426;28;20207;-75
2023/03/24 05:23:35;;;;;;;17.30;8.73;;;;;;;14.26;60.32;94719.69;5065253;28;20253;-75
2023/03/24 05:26:01;;;;;;;24.42;14.60;;;;;;;14.13;60.44;94711.59;5053177;28;20246;-73
2023/03/24 05:28:28;;;;;;;21.35;12.40;;;;;;;14.14;60.46;94724.06;5052267;28;20195;-76
2023/03/24 05:30:55;;;;;;;26.38;15.15;;;;;;;14.37;59.37;94715.31;5066415;28;20317;-74
2023/03/24 05:33:22;;;;;;;26.88;14.05;;;;;;;14.44;59.37;94715.56;5058608;28;20666;-75
2023/03/24 05:35:50;;;;;;;13.77;8.48;;;;;;;15.00;57.77;94720.84;5062675;28;20678;-75
2023/03/24 05:38:17;;;;;;;18.05;9.60;;;;;;;15.76;55.25;94708.56;5059721;28;20239;-75
2023/03/24 05:40:44;;;;;;;24.92;10.48;;;;;;;15.92;53.51;94707.34;5055529;28;20276;-74
2023/03/24 05:43:11;;;;;;;15.77;8.52;;;;;;;16.41;51.98;94705.94;5058985;28;20208;-74
2023/03/24 05:45:38;;;;;;;20.27;9.73;;;;;;;16.70;51.33;94708.06;5063020;28;20265;-74
2023/03/24 05:48:05;;;;;;;20.77;10.15;;;;;;;17.28;49.81;94699.63;5060013;28;20226;-75
2023/03/24 05:50:32;;;;;;;20.65;12.45;;;;;;;17.27;49.09;94698.84;5064690;28;20210;-75
2023/03/24 05:53:00;;;;;;;17.63;9.52;;;;;;;17.89;47.29;94704.06;5060396;28;20199;-75
2023/03/24 05:55:27;;;;;;;22.92;13.02;;;;;;;18.15;46.93;94697.72;5055673;28;20214;-74
2023/03/24 05:57:54;;;;;;;21.38;12.27;;;;;;;18.64;45.69;94689.25;5057694;28;20228;-74
2023/03/24 06:00:22;;;;;;;27.48;16.65;;;;;;;18.97;44.76;94683.69;5062414;28;20738;-74
2023/03/24 06:02:49;;;;;;;19.48;13.02;;;;;;;18.72;44.67;94699.16;5061356;28;20291;-75
2023/03/24 06:05:16;;;;;;;26.98;13.52;;;;;;;18.55;45.12;94700.53;5055621;28;20203;-74
2023/03/24 06:07:45;;;;;;;27.08;14.43;;;;;;;18.42;45.53;94713.72;5056666;28;20211;-74
2023/03/24 06:10:17;;;;;;;32.22;15.23;;;;;;;18.15;45.54;94714.97;5062331;28;20215;-75
2023/03/24 06:12:44;;;;;;;23.88;14.25;;;;;;;18.72;44.98;94710.13;5062367;28;20206;-74
2023/03/24 06:15:16;;;;;;;25.95;15.07;;;;;;;17.15;47.68;94711.94;5055731;28;20675;-75
2023/03/24 06:17:46;;;;;;;25.90;16.23;;;;;;;17.28;47.73;94710.59;5055146;28;20227;-74
2023/03/24 06:20:15;;;;;;;24.95;15.20;;;;;;;16.54;49.90;94716.34;5060582;28;20223;-75
2023/03/24 06:22:43;;;;;;;25.85;15.68;;;;;;;16.77;49.63;94708.22;5061631;28;20264;-74
2023/03/24 06:25:10;;;;;;;23.17;15.15;;;;;;;17.63;48.59;94710.34;5058359;28;20211;-74
2023/03/24 06:27:45;;;;;;;21.77;14.82;;;;;;;18.81;46.00;94707.88;5055330;28;20256;-74
2023/03/24 06:30:14;;;;;;;22.92;15.85;;;;;;;18.45;46.25;94712.94;5058454;28;20218;-74
2023/03/24 06:32:41;;;;;;;29.42;16.60;;;;;;;19.87;43.90;94703.19;5062128;28;20251;-74
2023/03/24 06:35:08;;;;;;;23.38;15.38;;;;;;;19.97;43.32;94706.34;5060033;28;20195;-75
2023/03/24 06:37:35;;;;;;;24.88;15.63;;;;;;;19.68;43.65;94703.44;5054699;28;20312;-74
2023/03/24 06:40:09;;;;;;;26.02;15.70;;;;;;;20.27;42.51;94704.13;5057227;28;20210;-73
2023/03/24 06:42:37;;;;;;;23.92;14.68;;;;;;;18.36;45.06;94714.41;5062591;28;20208;-73
2023/03/24 06:45:05;;;;;;;24.00;14.82;;;;;;;18.58;45.44;94719.00;5048505;28;20830;-74
2023/03/24 06:47:32;;;;;;;22.58;15.27;;;;;;;19.28;44.04;94722.75;5062317;28;20269;-74
2023/03/24 06:49:59;;;;;;;21.38;15.15;;;;;;;18.62;44.91;94721.78;5061842;28;20195;-74
2023/03/24 06:52:26;;;;;;;22.38;14.95;;;;;;;17.89;46.26;94723.25;5054831;28;20248;-75
2023/03/24 06:54:53;;;;;;;30.92;14.27;;;;;;;18.35;45.72;94721.84;5055241;28;20230;-74
2023/03/24 06:57:20;;;;;;;21.63;13.90;;;;;;;18.14;46.29;94716.13;5061653;28;20199;-74
2023/03/24 06:59:48;;;;;;;23.05;14.05;;;;;;;19.06;44.63;94714.34;5061796;28;20578;-74
2023/03/24 07:02:15;;;;;;;18.17;13.20;;;;;;;19.54;44.55;94711.63;5054858;28;20247;-74
2023/03/24 07:04:42;;;;;;;23.98;13.00;;;;;;;19.06;43.94;94725.34;5055253;28;20265;-74
2023/03/24 07:07:09;;;;;;;20.15;13.38;;;;;;;18.98;43.95;94723.72;5061581;28;20211;-75
2023/03/24 07:09:36;;;;;;;24.13;13.70;;;;;;;17.43;46.69;94720.59;5062038;28;20231;-76
2023/03/24 07:12:03;;;;;;;24.25;12.98;;;;;;;15.90;50.60;94738.91;5055458;28;20202;-78
2023/03/24 07:14:30;;;;;;;25.83;12.90;;;;;;;15.56;52.47;94740.53;5054544;28;20741;-76
2023/03/24 07:16:58;;;;;;;23.27;13.90;;;;;;;15.09;53.55;94752.25;5060369;28;20196;-74
2023/03/24 07:19:25;;;;;;;22.38;13.10;;;;;;;16.55;50.67;94739.03;5060999;28;20600;-76
2023/03/24 07:21:52;;;;;;;22.38;13.15;;;;;;;16.05;51.67;94743.53;5055430;28;20198;-75
2023/03/24 07:24:18;;;;;;;23.30;13.07;;;;;;;15.87;51.91;94750.53;5067164;28;20256;-75
2023/03/24 07:26:45;;;;;;;20.27;12.82;;;;;;;16.09;51.94;94743.59;5058554;28;20207;-74
2023/03/24 07:29:12;;;;;;;23.27;13.48;;;;;;;16.37;50.51;94740.66;5059991;28;20215;-75
2023/03/24 07:31:39;;;;;;;20.38;13.02;;;;;;;16.22;50.69;94736.84;5058166;28;20200;-75
2023/03/24 07:34:08;;;;;;;21.75;14.45;;;;;;;14.81;54.33;94752.34;5060383;28;20298;-74
2023/03/24 07:36:35;;;;;;;21.55;13.73;;;;;;;15.52;53.17;94745.88;5057596;28;20256;-74
2023/03/24 07:39:03;;;;;;;21.55;13.98;;;;;;;16.16;52.36;94743.72;5064629;28;20740;-75
2023/03/24 07:41:30;;;;;;;22.15;13.00;;;;;;;16.48;51.34;94738.91;5058126;28;20293;-75
2023/03/24 07:43:57;;;;;;;19.77;12.93;;;;;;;15.87;51.81;94736.88;5053972;28;20206;-76
2023/03/24 07:46:23;;;;;;;22.63;13.32;;;;;;;16.21;51.88;94736.06;5056522;28;20547;-75
2023/03/24 07:48:51;;;;;;;21.58;13.68;;;;;;;16.43;51.47;94728.25;5064430;28;20582;-74
2023/03/24 07:51:19;;;;;;;24.75;14.15;;;;;;;16.53;51.52;94725.75;5056443;28;20200;-73
2023/03/24 07:53:46;;;;;;;21.08;13.75;;;;;;;16.19;51.25;94732.88;5060863;28;20200;-74
2023/03/24 07:56:13;;;;;;;24.83;13.63;;;;;;;16.46;51.49;94730.25;5058670;28;20209;-75
2023/03/24 07:58:40;;;;;;;24.13;13.27;;;;;;;15.39;53.85;94738.94;5049353;28;20228;-75
2023/03/24 08:01:08;;;;;;;21.98;13.30;;;;;;;15.50;53.23;94723.59;5058335;28;20678;-75
2023/03/24 08:03:35;;;;;;;22.38;13.00;;;;;;;15.26;53.76;94723.81;5054457;28;20290;-75
2023/03/24 08:06:02;;;;;;;21.55;13.30;;;;;;;15.16;54.10;94729.81;5056277;28;20211;-75
2023/03/24 08:08:30;;;;;;;23.55;13.50;;;;;;;15.19;53.68;94721.69;5060851;28;20288;-75
2023/03/24 08:10:57;;;;;;;19.02;11.52;;;;;;;15.46;53.22;94711.78;5059572;28;20296;-77
2023/03/24 08:13:24;;;;;;;19.13;12.05;;;;;;;15.74;52.68;94703.44;5053316;28;20260;-75
2023/03/24 08:15:52;;;;;;;16.98;12.32;;;;;;;15.56;52.90;94716.75;5054770;28;20560;-75
2023/03/24 08:18:19;;;;;;;19.17;11.77;;;;;;;14.93;55.23;94722.25;5059935;28;20334;-75
2023/03/24 08:20:46;;;;;;;16.05;10.68;;;;;;;15.12;53.25;94728.94;5060370;28;20294;-75
2023/03/24 08:23:13;;;;;;;18.17;11.98;;;;;;;14.69;54.22;94727.88;5047214;28;20198;-75
2023/03/24 08:25:41;;;;;;;17.33;11.75;;;;;;;14.85;54.35;94712.31;5060436;28;20202;-75
2023/03/24 08:28:08;;;;;;;21.65;12.60;;;;;;;14.75;54.40;94715.59;5053875;28;20660;-75
2023/03/24 08:30:35;;;;;;;25.05;13.05;;;;;;;15.08;54.64;94712.47;5062448;28;20649;-75
2023/03/24 08:33:03;;;;;;;25.08;13.10;;;;;;;15.07;54.80;94715.56;5054414;28;20195;-75
2023/03/24 08:35:32;;;;;;;21.00;12.57;;;;;;;14.74;55.04;94719.47;5066002;28;20206;-76
2023/03/24 08:37:59;;;;;;;23.13;11.90;;;;;;;15.25;53.90;94705.84;5055124;28;20257;-75
2023/03/24 08:40:27;;;;;;;20.58;12.18;;;;;;;15.69;53.47;94694.78;5053489;28;20231;-75
2023/03/24 08:42:59;;;;;;;18.80;12.15;;;;;;;15.51;52.45;94697.88;5057968;28;20746;-75
2023/03/24 08:45:29;;;;;;;18.63;11.93;;;;;;;15.06;53.97;94687.47;5060131;28;20299;-75
2023/03/24 08:47:58;;;;;;;19.92;12.80;;;;;;;14.71;54.50;94687.44;5056707;28;20230;-75
2023/03/24 08:50:27;;;;;;;16.92;12.15;;;;;;;15.12;55.40;94683.34;5053173;28;20203;-76
2023/03/24 08:52:54;;;;;;;22.67;13.10;;;;;;;15.63;53.46;94675.91;5055737;28;20773;-75
2023/03/24 08:55:23;;;;;;;16.83;11.70;;;;;;;15.75;53.35;94664.06;5060219;28;20258;-75
2023/03/24 08:57:50;;;;;;;22.33;12.38;;;;;;;15.89;52.34;94669.03;5058428;28;20754;-75
2023/03/24 09:00:20;;;;;;;20.75;12.35;;;;;;;16.01;52.72;94666.13;5053787;28;20222;-75
2023/03/24 09:02:49;;;;;;;23.50;13.00;;;;;;;15.90;52.43;94665.94;5058377;28;20196;-76
2023/03/24 09:05:17;;;;;;;17.33;12.38;;;;;;;15.38;53.53;94666.38;5064037;28;20203;-75
2023/03/24 09:07:44;;;;;;;19.38;12.15;;;;;;;15.83;52.31;94659.56;5063983;28;20317;-74
2023/03/24 09:10:12;;;;;;;22.30;12.70;;;;;;;15.97;51.69;94648.91;5056522;28;20811;-75
2023/03/24 09:12:40;;;;;;;24.63;13.63;;;;;;;15.61;52.46;94653.63;5057474;28;20261;-77
2023/03/24 09:15:09;;;;;;;17.67;12.00;;;;;;;15.80;51.77;94638.41;5057241;28;20272;-75
2023/03/24 09:17:37;;;;;;;21.02;12.32;;;;;;;16.27;52.04;94638.13;5056749;28;20612;-73
2023/03/24 09:20:10;;;;;;;19.05;11.82;;;;;;;17.02;50.12;94638.25;5062429;28;20311;-74
2023/03/24 09:22:37;;;;;;;19.70;12.30;;;;;;;16.80;49.57;94630.88;5065015;28;20203;-75
2023/03/24 09:25:05;;;;;;;20.60;11.93;;;;;;;16.78;49.65;94635.94;5070020;28;20207;-74
2023/03/24 09:27:31;;;;;;;30.70;12.77;;;;;;;16.90;49.32;94630.25;5056042;28;20661;-74
2023/03/24 09:29:58;;;;;;;20.15;12.40;;;;;;;17.04;49.43;94625.00;5066445;28;20198;-74
2023/03/24 09:32:25;;;;;;;24.23;12.48;;;;;;;16.89;48.67;94623.19;5055823;28;21026;-77
2023/03/24 09:34:53;;;;;;;20.38;11.73;;;;;;;16.90;48.47;94630.25;5069852;28;20210;-75
2023/03/24 09:37:20;;;;;;;18.17;11.60;;;;;;;16.82;49.33;94625.81;5056630;28;20666;-75
2023/03/24 09:39:47;;;;;;;21.73;11.95;;;;;;;17.13;49.28;94621.97;5059806;28;20330;-74
2023/03/24 09:42:21;;;;;;;17.15;11.10;;;;;;;17.10;48.47;94610.97;5062681;28;20269;-75
2023/03/24 09:44:54;;;;;;;17.55;10.88;;;;;;;17.49;47.14;94604.09;5060249;28;20202;-74
2023/03/24 09:47:30;;;;;;;23.98;11.60;;;;;;;17.79;47.27;94608.78;5055961;28;20674;-74
2023/03/24 09:50:02;;;;;;;18.25;12.18;;;;;;;17.25;47.42;94608.06;5055750;28;20199;-75
2023/03/24 09:52:34;;;;;;;19.13;11.32;;;;;;;17.45;48.00;94600.53;5056572;28;20203;-75
2023/03/24 09:55:02;;;;;;;20.92;11.02;;;;;;;17.81;46.82;94595.50;5056387;28;20214;-74
2023/03/24 09:57:36;;;;;;;19.42;11.35;;;;;;;17.83;46.16;94593.19;5060650;28;20210;-74
2023/03/24 10:00:15;;;;;;;17.77;10.98;;;;;;;17.69;46.31;94589.09;5062908;28;20239;-74
2023/03/24 10:02:42;;;;;;;20.77;11.48;;;;;;;17.70;46.77;94584.41;5061073;28;20236;-74
2023/03/24 10:05:16;;;;;;;16.92;11.40;;;;;;;17.72;46.81;94582.88;5055969;28;20669;-75
2023/03/24 10:07:50;;;;;;;17.83;11.02;;;;;;;18.05;46.21;94578.53;5057429;28;20209;-75
2023/03/24 10:10:28;;;;;;;20.35;11.43;;;;;;;17.83;46.80;94579.47;5062468;28;20795;-74
2023/03/24 10:13:00;;;;;;;21.75;12.05;;;;;;;17.31;46.90;94583.91;5062812;28;20234;-75
2023/03/24 10:15:37;;;;;;;18.10;11.55;;;;;;;17.47;46.60;94576.28;5058042;28;20264;-74
2023/03/24 10:18:20;;;;;;;16.45;11.13;;;;;;;18.04;45.55;94582.47;5055384;28;20773;-74
2023/03/24 10:20:54;;;;;;;17.70;11.52;;;;;;;18.45;45.06;94573.03;5056151;28;20666;-74
2023/03/24 10:23:29;;;;;;;20.25;11.63;;;;;;;18.78;44.76;94565.88;5056677;28;20191;-74
2023/03/24 10:26:05;;;;;;;17.65;11.65;;;;;;;18.29;44.91;94567.03;5055679;28;20207;-74
2023/03/24 10:28:38;;;;;;;19.45;11.93;;;;;;;18.24;45.78;94570.13;5058447;28;20265;-74
2023/03/24 10:31:11;;;;;;;21.98;11.93;;;;;;;17.77;46.56;94578.25;5050521;28;20218;-76
2023/03/24 10:33:41;;;;;;;20.83;11.90;;;;;;;17.84;46.53;94567.34;5051873;28;20674;-75
2023/03/24 10:36:13;;;;;;;17.65;11.27;;;;;;;18.13;46.05;94562.97;5060277;28;20199;-74
2023/03/24 10:38:40;;;;;;;15.75;11.18;;;;;;;18.40;45.05;94570.66;5067942;28;20203;-74
2023/03/24 10:41:12;;;;;;;17.88;11.30;;;;;;;18.52;44.85;94557.81;5052521;28;20203;-74
2023/03/24 10:43:39;;;;;;;15.30;10.90;;;;;;;19.10;43.71;94555.91;5054548;28;20200;-75
2023/03/24 10:46:06;;;;;;;17.10;10.30;;;;;;;19.14;42.93;94553.97;5068286;28;20276;-75
2023/03/24 10:48:41;;;;;;;18.58;11.63;;;;;;;18.67;43.70;94556.78;5054745;28;20242;-74
2023/03/24 10:51:15;;;;;;;17.20;11.20;;;;;;;18.15;44.62;94564.16;5058254;28;20822;-75
2023/03/24 10:53:42;;;;;;;16.45;11.05;;;;;;;18.26;44.46;94559.56;5054915;28;20208;-74
2023/03/24 10:56:15;;;;;;;19.70;10.23;;;;;;;18.41;44.09;94547.56;5060826;28;20646;-74
2023/03/24 10:58:43;;;;;;;16.33;9.98;;;;;;;18.85;43.27;94538.50;5055018;28;20646;-74
2023/03/24 11:01:25;;;;;;;15.02;9.98;;;;;;;18.78;42.66;94538.44;5057031;28;20211;-74
2023/03/24 11:03:52;;;;;;;13.38;9.30;;;;;;;18.37;42.43;94533.00;5055970;28;20199;-73
2023/03/24 11:06:21;;;;;;;19.17;9.68;;;;;;;19.02;42.63;94543.28;5054061;28;20207;-75
2023/03/24 11:09:06;;;;;;;12.77;9.10;;;;;;;18.87;41.66;94541.63;5060642;28;20593;-73
2023/03/24 11:11:35;;;;;;;12.65;8.85;;;;;;;19.14;41.55;94532.00;5061377;28;20207;-75
2023/03/24 11:14:03;;;;;;;15.02;9.68;;;;;;;18.26;43.24;94539.56;5058993;28;20207;-74
2023/03/24 11:16:32;;;;;;;17.45;9.13;;;;;;;18.45;40.19;94533.84;5054328;28;20207;-75
2023/03/24 11:19:01;;;;;;;11.32;6.90;;;;;;;18.53;39.03;94521.78;5055930;28;20299;-75
2023/03/24 11:21:30;;;;;;;8.63;4.97;;;;;;;18.22;36.76;94528.56;5060917;28;20640;-75
2023/03/24 11:24:00;;;;;;;16.17;7.35;;;;;;;18.25;38.82;94516.84;5060342;28;20658;-75
2023/03/24 11:26:31;;;;;;;11.63;6.75;;;;;;;18.60;38.98;94510.09;5054642;28;20569;-74
2023/03/24 11:29:00;;;;;;;9.88;6.95;;;;;;;18.88;38.41;94504.78;5057673;28;20192;-74
2023/03/24 11:31:30;;;;;;;12.25;7.43;;;;;;;18.80;38.34;94503.97;5048176;28;20196;-74
2023/03/24 11:34:00;;;;;;;10.57;8.02;;;;;;;18.42;38.79;94509.94;5061194;28;20198;-74
2023/03/24 11:36:48;;;;;;;12.77;6.72;;;;;;;18.73;38.51;94492.91;5056129;28;20209;-75
2023/03/24 11:39:21;;;;;;;6.75;4.57;;;;;;;18.71;36.17;94500.00;5054240;28;20674;-74